Time;durP1;ratioP1;P1;durP2;ratioP2;P2;SDS_P1;SDS_P2;PMS_P1;PMS_P2;Temp;Humidity;BMP_temperature;BMP_pressure;BME280_temperature;BME280_humidity;BME280_pressure;Samples;Min_cycle;Max_cycle;Signal;HPM_P1;HPM_P2
2022/07/20 00:00:39;;;;;;;1.65;1.33;;;;;;;30.75;26.88;97058.88;5097546;28;20462;-28
2022/07/20 00:03:11;;;;;;;2.33;1.50;;;;;;;30.73;27.25;97065.03;5097444;28;20040;-27
2022/07/20 00:05:37;;;;;;;2.92;1.30;;;;;;;30.76;26.84;97061.13;5097337;28;20102;-28
2022/07/20 00:08:02;;;;;;;1.70;1.27;;;;;;;30.73;26.84;97053.84;5097141;28;20111;-28
2022/07/20 00:13:13;;;;;;;1.83;1.27;;;;;;;30.63;27.30;97058.41;5097215;28;20027;-29
2022/07/20 00:15:39;;;;;;;2.85;1.50;;;;;;;30.71;26.68;97054.38;5097089;28;20024;-28
2022/07/20 00:18:05;;;;;;;1.77;1.30;;;;;;;30.71;26.55;97048.78;5097187;28;20024;-30
2022/07/20 00:20:30;;;;;;;3.00;1.42;;;;;;;30.75;27.17;97051.25;5097324;28;20078;-28
2022/07/20 00:22:58;;;;;;;1.98;1.05;;;;;;;30.65;27.38;97047.44;5097071;28;20028;-28
2022/07/20 00:25:24;;;;;;;1.48;1.15;;;;;;;30.71;26.68;97036.81;5095427;28;20024;-28
2022/07/20 00:27:49;;;;;;;1.52;1.30;;;;;;;30.70;26.63;97029.72;5096827;28;20020;-28
2022/07/20 00:30:15;;;;;;;1.20;1.10;;;;;;;30.68;26.54;97032.31;5096808;28;20039;-28
2022/07/20 00:32:42;;;;;;;2.88;1.30;;;;;;;30.68;26.85;97035.13;5096631;28;20110;-28
2022/07/20 00:35:10;;;;;;;1.88;1.10;;;;;;;30.77;26.81;97033.91;5096560;28;20477;-28
2022/07/20 00:37:36;;;;;;;1.35;1.20;;;;;;;30.74;26.88;97034.97;5096874;28;20454;-28
2022/07/20 00:40:03;;;;;;;1.25;1.10;;;;;;;30.85;26.72;97024.25;5096591;28;20043;-29
2022/07/20 00:42:29;;;;;;;1.70;1.10;;;;;;;30.65;26.81;97031.38;5096492;28;20035;-29
2022/07/20 00:44:54;;;;;;;1.45;1.13;;;;;;;30.67;27.28;97028.00;5096532;28;20028;-28
2022/07/20 00:47:20;;;;;;;2.35;1.13;;;;;;;30.73;26.22;97031.44;5096289;28;20438;-27
2022/07/20 00:49:46;;;;;;;1.88;1.45;;;;;;;30.63;27.28;97030.41;5096345;28;20028;-27
2022/07/20 00:52:11;;;;;;;2.45;1.10;;;;;;;30.64;26.93;97029.13;5096403;28;20031;-28
2022/07/20 00:54:39;;;;;;;2.53;1.40;;;;;;;30.67;26.58;97031.56;5095067;28;20024;-27
2022/07/20 00:57:04;;;;;;;2.10;1.40;;;;;;;30.74;26.26;97029.38;5096205;28;20020;-28
2022/07/20 00:59:30;;;;;;;3.10;1.27;;;;;;;30.77;26.84;97028.28;5095937;28;20492;-28
2022/07/20 01:01:56;;;;;;;2.95;1.50;;;;;;;30.74;26.39;97029.38;5096123;28;20416;-29
2022/07/20 01:04:22;;;;;;;1.83;1.20;;;;;;;30.75;26.87;97030.88;5095963;28;20122;-28
2022/07/20 01:06:48;;;;;;;1.38;1.10;;;;;;;30.82;26.67;97030.94;5096057;28;20020;-29
2022/07/20 01:09:13;;;;;;;2.47;1.20;;;;;;;30.65;26.91;97025.78;5095965;28;20055;-28
2022/07/20 01:11:39;;;;;;;2.10;1.10;;;;;;;30.72;26.29;97024.31;5096225;28;20390;-28
2022/07/20 01:14:08;;;;;;;1.23;1.13;;;;;;;30.74;26.41;97024.53;5095953;28;20020;-30
2022/07/20 01:16:35;;;;;;;2.58;1.38;;;;;;;30.73;25.99;97025.06;5095825;28;20102;-27
2022/07/20 01:19:00;;;;;;;1.45;1.10;;;;;;;30.76;26.01;97032.38;5095777;28;20024;-28
2022/07/20 01:21:26;;;;;;;1.65;1.05;;;;;;;30.74;26.68;97030.13;5095808;28;20016;-29
2022/07/20 01:23:52;;;;;;;1.48;1.35;;;;;;;30.68;26.54;97021.13;5095747;28;20039;-28
2022/07/20 01:26:19;;;;;;;1.45;1.35;;;;;;;30.76;25.46;97027.53;5095618;28;20071;-29
2022/07/20 01:28:45;;;;;;;2.22;1.40;;;;;;;30.71;26.35;97022.81;5095316;28;20024;-28
2022/07/20 01:31:10;;;;;;;2.50;1.20;;;;;;;30.78;26.65;97024.94;5094307;28;20025;-27
2022/07/20 01:33:36;;;;;;;2.17;1.40;;;;;;;30.74;26.22;97029.38;5095858;28;20069;-28
2022/07/20 01:36:02;;;;;;;2.45;1.30;;;;;;;30.81;26.47;97028.69;5095762;28;20157;-28
2022/07/20 01:38:28;;;;;;;2.03;1.20;;;;;;;30.82;26.38;97030.19;5095406;28;20051;-28
2022/07/20 01:40:53;;;;;;;1.33;1.10;;;;;;;30.74;25.88;97021.72;5095605;28;20074;-27
2022/07/20 01:43:19;;;;;;;1.48;1.30;;;;;;;30.76;26.32;97033.13;5095392;28;20401;-28
2022/07/20 01:45:44;;;;;;;1.65;1.20;;;;;;;30.70;26.64;97021.31;5095363;28;20492;-28
2022/07/20 01:48:10;;;;;;;1.55;1.05;;;;;;;30.70;25.85;97018.53;5095316;28;20381;-28
2022/07/20 01:50:38;;;;;;;1.92;1.10;;;;;;;30.74;26.26;97024.53;5095372;28;20099;-27
2022/07/20 01:53:04;;;;;;;1.40;1.30;;;;;;;30.74;26.85;97018.94;5095025;28;20115;-27
2022/07/20 01:55:29;;;;;;;1.58;1.25;;;;;;;30.68;26.66;97021.13;5095227;28;20048;-28
2022/07/20 01:57:55;;;;;;;1.77;1.55;;;;;;;30.68;26.08;97021.88;5095150;28;20019;-28
2022/07/20 02:00:20;;;;;;;1.98;1.00;;;;;;;30.62;26.64;97012.88;5095540;28;20369;-28
2022/07/20 02:02:46;;;;;;;1.73;1.45;;;;;;;30.71;26.15;97020.78;5093636;28;20373;-29
2022/07/20 02:05:12;;;;;;;1.50;1.17;;;;;;;30.70;26.58;97019.28;5094858;28;20035;-28
2022/07/20 02:07:38;;;;;;;1.83;1.30;;;;;;;30.69;26.41;97012.16;5095247;28;20024;-27
2022/07/20 02:10:09;;;;;;;1.95;1.58;;;;;;;30.73;26.23;97011.06;5094132;28;20535;-28
2022/07/20 02:12:35;;;;;;;2.15;1.58;;;;;;;30.70;27.26;97015.72;5094844;28;20065;-29
2022/07/20 02:15:01;;;;;;;1.55;1.30;;;;;;;30.73;27.11;97014.63;5094706;28;20367;-28
2022/07/20 02:17:26;;;;;;;1.77;1.42;;;;;;;30.73;27.13;97019.47;5094798;28;20016;-29
2022/07/20 02:19:52;;;;;;;1.95;1.55;;;;;;;30.71;26.79;97020.03;5094771;28;20020;-28
2022/07/20 02:22:17;;;;;;;3.03;1.27;;;;;;;30.65;26.98;97022.22;5094454;28;20031;-29
2022/07/20 02:24:43;;;;;;;2.20;1.50;;;;;;;30.68;26.64;97018.31;5093505;28;20058;-28
2022/07/20 02:27:08;;;;;;;1.90;1.23;;;;;;;30.72;26.93;97015.94;5094571;28;20470;-28
2022/07/20 02:29:34;;;;;;;3.17;1.60;;;;;;;30.67;27.11;97011.22;5094608;28;20485;-29
2022/07/20 02:31:59;;;;;;;1.65;1.33;;;;;;;30.71;26.61;97009.56;5094363;28;20051;-28
2022/07/20 02:34:25;;;;;;;2.17;1.58;;;;;;;30.60;27.13;97003.50;5094440;28;20028;-28
2022/07/20 02:36:50;;;;;;;1.23;1.02;;;;;;;30.70;26.54;97001.72;5094670;28;20045;-28
2022/07/20 02:39:17;;;;;;;3.05;1.60;;;;;;;30.69;27.39;97017.03;5094292;28;20512;-28
2022/07/20 02:41:42;;;;;;;2.35;1.30;;;;;;;30.67;26.85;97016.81;5094216;28;20028;-28
2022/07/20 02:44:08;;;;;;;3.67;1.50;;;;;;;30.66;27.05;97007.66;5094272;28;20474;-27
2022/07/20 02:46:33;;;;;;;1.60;1.30;;;;;;;30.70;26.68;97012.91;5094051;28;20058;-28
2022/07/20 02:48:58;;;;;;;2.10;1.50;;;;;;;30.71;27.43;97020.03;5094126;28;20028;-31
2022/07/20 02:51:24;;;;;;;2.03;1.40;;;;;;;30.73;26.85;97019.47;5094187;28;20035;-29
2022/07/20 02:53:49;;;;;;;1.90;1.40;;;;;;;30.68;26.62;97019.06;5094293;28;20020;-28
2022/07/20 02:56:15;;;;;;;1.40;1.23;;;;;;;30.68;27.39;97015.50;5093921;28;20023;-28
2022/07/20 02:58:40;;;;;;;1.65;1.40;;;;;;;30.70;27.03;97019.28;5094164;28;20045;-27
2022/07/20 03:01:06;;;;;;;2.30;1.35;;;;;;;30.69;26.55;97023.38;5092734;28;20496;-29
2022/07/20 03:03:31;;;;;;;1.58;1.35;;;;;;;30.65;27.14;97014.59;5093949;28;20473;-31
2022/07/20 03:05:57;;;;;;;2.08;1.42;;;;;;;30.69;26.96;97014.22;5093747;28;20074;-28
2022/07/20 03:08:22;;;;;;;2.50;1.40;;;;;;;30.68;26.55;97021.13;5093619;28;20078;-28
2022/07/20 03:10:48;;;;;;;2.03;1.30;;;;;;;30.67;26.58;97020.34;5093904;28;20112;-28
2022/07/20 03:13:13;;;;;;;1.58;1.25;;;;;;;30.66;26.77;97021.66;5093652;28;20017;-29
2022/07/20 03:15:39;;;;;;;2.42;1.50;;;;;;;30.68;26.34;97026.72;5093701;28;20016;-29
2022/07/20 03:18:04;;;;;;;1.70;1.38;;;;;;;30.63;26.26;97024.81;5092496;28;20446;-29
2022/07/20 03:20:32;;;;;;;2.05;1.27;;;;;;;30.67;26.23;97030.81;5093574;28;20028;-28
2022/07/20 03:22:59;;;;;;;2.20;1.40;;;;;;;30.64;26.79;97029.88;5092478;28;20028;-29
2022/07/20 03:25:25;;;;;;;1.80;1.42;;;;;;;30.67;26.80;97033.59;5093418;28;20046;-29
2022/07/20 03:27:55;;;;;;;1.73;1.40;;;;;;;30.64;26.83;97029.88;5093457;28;20504;-28
2022/07/20 03:30:22;;;;;;;3.53;1.77;;;;;;;30.64;26.53;97031.94;5093635;28;20674;-28
2022/07/20 03:32:47;;;;;;;2.33;1.52;;;;;;;30.61;26.58;97033.00;5093552;28;20050;-28
2022/07/20 03:35:14;;;;;;;1.73;1.30;;;;;;;30.60;26.40;97031.50;5093358;28;20028;-29
2022/07/20 03:37:39;;;;;;;2.00;1.40;;;;;;;30.62;26.42;97035.28;5093440;28;20042;-27
2022/07/20 03:40:05;;;;;;;1.98;1.40;;;;;;;30.61;25.95;97035.81;5093384;28;20107;-29
2022/07/20 03:42:32;;;;;;;2.38;1.40;;;;;;;30.62;26.77;97042.91;5093603;28;20032;-28
2022/07/20 03:44:58;;;;;;;1.98;1.25;;;;;;;30.62;26.18;97038.06;5093305;28;20128;-28
2022/07/20 03:47:24;;;;;;;3.67;1.90;;;;;;;30.63;26.71;97036.78;5093290;28;20028;-28
2022/07/20 03:49:50;;;;;;;2.30;1.50;;;;;;;30.56;26.39;97031.84;5093466;28;20024;-30
2022/07/20 03:52:16;;;;;;;3.10;1.40;;;;;;;30.53;26.07;97030.16;5093365;28;20496;-28
2022/07/20 03:54:42;;;;;;;2.75;1.48;;;;;;;30.59;26.92;97032.81;5093265;28;20057;-28
2022/07/20 03:57:08;;;;;;;1.50;1.30;;;;;;;30.57;26.59;97038.19;5093441;28;20036;-28
2022/07/20 03:59:34;;;;;;;1.50;1.20;;;;;;;30.53;26.53;97029.38;5093110;28;20027;-27
2022/07/20 04:01:59;;;;;;;2.85;1.50;;;;;;;30.57;26.94;97029.78;5093230;28;20088;-27
2022/07/20 04:04:25;;;;;;;1.98;1.40;;;;;;;30.51;26.24;97029.91;5093575;28;20031;-28
2022/07/20 04:06:50;;;;;;;2.53;1.30;;;;;;;30.55;26.66;97029.59;5093303;28;20031;-30
2022/07/20 04:09:43;;;;;;;1.95;1.20;;;;;;;30.52;26.89;97030.66;5092912;28;20458;-28
2022/07/20 04:12:03;;;;;;;1.95;1.42;;;;;;;30.51;26.51;97029.16;5093107;28;20031;-28
2022/07/20 04:14:28;;;;;;;1.65;1.10;;;;;;;30.51;26.56;97040.38;5093157;28;20470;-27
2022/07/20 04:16:53;;;;;;;3.15;1.70;;;;;;;30.51;26.75;97037.56;5093134;28;20035;-29
2022/07/20 04:19:19;;;;;;;1.60;1.20;;;;;;;30.49;26.13;97035.31;5093081;28;20462;-28
2022/07/20 04:21:44;;;;;;;1.67;1.50;;;;;;;30.50;26.18;97038.88;5093093;28;20090;-28
2022/07/20 04:24:10;;;;;;;1.40;1.30;;;;;;;30.52;26.30;97037.03;5093030;28;20024;-28
2022/07/20 04:26:36;;;;;;;1.98;1.48;;;;;;;30.48;26.20;97047.81;5092870;28;20020;-29
2022/07/20 04:29:02;;;;;;;1.83;1.45;;;;;;;30.47;26.80;97046.28;5092995;28;20028;-28
2022/07/20 04:31:27;;;;;;;1.83;1.30;;;;;;;30.48;26.37;97041.44;5091882;28;20135;-29
2022/07/20 04:33:53;;;;;;;2.00;1.50;;;;;;;30.48;26.92;97041.44;5095296;28;20046;-28
2022/07/20 04:36:18;;;;;;;2.03;1.55;;;;;;;30.49;26.50;97042.94;5096658;28;20028;-28
2022/07/20 04:38:44;;;;;;;3.22;1.55;;;;;;;30.50;26.61;97050.06;5093982;28;20024;-28
2022/07/20 04:41:09;;;;;;;2.28;1.45;;;;;;;30.47;26.39;97051.13;5094686;28;20031;-28
2022/07/20 04:43:35;;;;;;;2.63;1.30;;;;;;;30.45;26.64;97057.28;5094685;28;20054;-28
2022/07/20 04:46:00;;;;;;;2.08;1.30;;;;;;;30.43;26.13;97053.53;5094474;28;20101;-28
2022/07/20 04:48:26;;;;;;;1.98;1.55;;;;;;;30.35;26.88;97048.63;5094651;28;20020;-28
2022/07/20 04:50:51;;;;;;;2.28;1.20;;;;;;;30.34;26.45;97049.91;5094481;28;20027;-28
2022/07/20 04:53:16;;;;;;;3.35;1.58;;;;;;;30.43;26.47;97051.47;5094502;28;20461;-28
2022/07/20 04:55:42;;;;;;;2.22;1.60;;;;;;;30.37;26.58;97053.66;5094461;28;20127;-29
2022/07/20 04:58:07;;;;;;;2.47;1.45;;;;;;;30.36;26.39;97052.91;5094260;28;20032;-28
2022/07/20 05:00:33;;;;;;;1.75;1.50;;;;;;;30.35;26.88;97051.41;5094301;28;20035;-27
2022/07/20 05:02:58;;;;;;;2.08;1.75;;;;;;;30.40;26.72;97051.84;5093916;28;20515;-27
2022/07/20 05:05:24;;;;;;;2.63;1.40;;;;;;;30.44;26.66;97055.78;5092829;28;20035;-28
2022/07/20 05:07:49;;;;;;;3.78;1.58;;;;;;;30.36;26.45;97058.50;5094003;28;20031;-28
2022/07/20 05:10:15;;;;;;;3.67;1.58;;;;;;;30.35;26.54;97057.00;5094005;28;20098;-29
2022/07/20 05:12:40;;;;;;;3.75;1.70;;;;;;;30.41;26.52;97053.34;5094326;28;20028;-28
2022/07/20 05:15:06;;;;;;;3.35;1.50;;;;;;;30.35;26.58;97057.00;5093921;28;20028;-27
2022/07/20 05:17:32;;;;;;;2.75;1.30;;;;;;;30.40;26.38;97060.22;5094065;28;20036;-27
2022/07/20 05:19:57;;;;;;;3.22;1.40;;;;;;;30.36;26.69;97054.97;5094007;28;20038;-28
2022/07/20 05:22:23;;;;;;;2.22;1.35;;;;;;;30.38;26.49;97057.97;5093857;28;20031;-28
2022/07/20 05:24:48;;;;;;;2.08;1.35;;;;;;;30.33;26.92;97061.63;5091839;28;20119;-27
2022/07/20 05:27:14;;;;;;;2.42;1.35;;;;;;;30.27;26.81;97066.63;5093515;28;20539;-28
2022/07/20 05:29:39;;;;;;;1.60;1.30;;;;;;;30.31;26.86;97073.38;5093663;28;20039;-28
2022/07/20 05:32:07;;;;;;;2.53;1.50;;;;;;;30.33;26.83;97075.63;5093631;28;20081;-27
2022/07/20 05:34:33;;;;;;;3.33;1.40;;;;;;;30.35;26.74;97084.25;5093534;28;20024;-28
2022/07/20 05:36:58;;;;;;;2.95;1.48;;;;;;;30.32;27.00;97088.88;5093638;28;20016;-27
2022/07/20 05:39:24;;;;;;;2.20;1.33;;;;;;;30.37;26.83;97090.03;5093369;28;20073;-28
2022/07/20 05:41:49;;;;;;;2.05;1.50;;;;;;;30.32;26.77;97094.47;5093395;28;20030;-29
2022/07/20 05:44:14;;;;;;;4.00;1.45;;;;;;;30.28;26.80;97096.88;5092804;28;20020;-28
2022/07/20 05:46:40;;;;;;;7.88;2.25;;;;;;;30.34;26.99;97085.53;5092991;28;20458;-28
2022/07/20 05:49:05;;;;;;;9.60;2.28;;;;;;;30.38;26.95;97096.41;5093418;28;20406;-27
2022/07/20 05:51:31;;;;;;;9.50;1.80;;;;;;;30.31;26.68;97095.75;5092885;28;20028;-27
2022/07/20 05:53:56;;;;;;;8.55;2.10;;;;;;;30.34;26.97;97094.69;5093353;28;20028;-28
2022/07/20 05:56:22;;;;;;;8.57;2.08;;;;;;;30.32;26.57;97097.25;5092978;28;20035;-28
2022/07/20 05:58:54;;;;;;;5.35;2.10;;;;;;;30.31;27.31;97098.56;5093147;28;20522;-28
2022/07/20 06:01:19;;;;;;;6.70;1.70;;;;;;;30.28;26.61;97099.66;5092863;28;20487;-28
2022/07/20 06:03:45;;;;;;;3.92;2.08;;;;;;;30.31;26.98;97100.59;5093283;28;20028;-28
2022/07/20 06:06:10;;;;;;;3.15;1.75;;;;;;;30.35;26.79;97101.03;5092872;28;20477;-29
2022/07/20 06:08:37;;;;;;;4.70;2.20;;;;;;;30.32;26.86;97096.50;5092952;28;20063;-29
2022/07/20 06:11:03;;;;;;;4.60;1.70;;;;;;;30.34;26.76;97094.69;5093131;28;20388;-27
2022/07/20 06:13:28;;;;;;;5.07;1.95;;;;;;;30.32;26.82;97100.06;5092618;28;20028;-28
2022/07/20 06:15:54;;;;;;;4.13;1.92;;;;;;;30.31;26.95;97098.56;5092826;28;20028;-28
2022/07/20 06:18:19;;;;;;;3.45;1.63;;;;;;;30.34;26.94;97100.28;5090751;28;20030;-27
2022/07/20 06:20:45;;;;;;;3.83;1.85;;;;;;;30.32;27.32;97100.06;5092632;28;20035;-28
2022/07/20 06:23:10;;;;;;;3.10;1.60;;;;;;;30.30;27.20;97099.84;5090704;28;20114;-28
2022/07/20 06:25:37;;;;;;;2.20;1.58;;;;;;;30.33;27.36;97092.41;5092438;28;20056;-30
2022/07/20 06:28:02;;;;;;;3.15;1.60;;;;;;;30.36;26.94;97102.53;5092595;28;20552;-28
2022/07/20 06:30:28;;;;;;;3.05;1.85;;;;;;;30.36;27.36;97097.69;5092834;28;20023;-28
2022/07/20 06:32:55;;;;;;;2.60;1.90;;;;;;;30.24;26.93;97096.44;5092519;28;20060;-27
2022/07/20 06:35:21;;;;;;;2.03;1.33;;;;;;;30.33;27.18;97104.38;5092385;28;20066;-28
2022/07/20 06:37:47;;;;;;;3.20;1.77;;;;;;;30.30;27.28;97108.25;5092126;28;20446;-28
2022/07/20 06:40:12;;;;;;;5.13;1.90;;;;;;;30.17;27.78;97101.94;5092371;28;20107;-28
2022/07/20 06:42:38;;;;;;;1.63;1.50;;;;;;;30.19;27.45;97104.94;5092424;28;20102;-27
2022/07/20 06:45:04;;;;;;;2.50;1.60;;;;;;;30.26;27.29;97098.69;5092273;28;20602;-28
2022/07/20 06:47:30;;;;;;;2.22;1.60;;;;;;;30.35;27.81;97101.78;5091595;28;20028;-28
2022/07/20 06:49:55;;;;;;;2.75;1.67;;;;;;;30.23;27.57;97108.94;5091984;28;20576;-29
2022/07/20 06:52:21;;;;;;;3.17;1.80;;;;;;;30.29;27.82;97109.53;5092297;28;20081;-27
2022/07/20 06:54:46;;;;;;;2.95;1.95;;;;;;;30.17;27.72;97110.31;5092060;28;20058;-29
2022/07/20 06:57:13;;;;;;;4.10;1.70;;;;;;;30.17;27.78;97111.09;5091870;28;20363;-28
2022/07/20 06:59:39;;;;;;;2.63;1.50;;;;;;;30.20;28.01;97112.03;5092021;28;20116;-28
2022/07/20 07:02:05;;;;;;;2.90;1.70;;;;;;;30.23;27.70;97110.97;5091856;28;20158;-28
2022/07/20 07:04:31;;;;;;;2.80;1.65;;;;;;;30.28;27.73;97116.44;5091761;28;20028;-28
2022/07/20 07:06:58;;;;;;;2.03;1.77;;;;;;;30.15;27.80;97118.53;5091632;28;20028;-28
2022/07/20 07:09:24;;;;;;;3.20;1.90;;;;;;;30.02;27.93;97113.72;5091723;28;20117;-28
2022/07/20 07:11:49;;;;;;;4.40;1.80;;;;;;;30.23;27.56;97116.56;5091682;28;20520;-28
2022/07/20 07:14:15;;;;;;;3.20;1.60;;;;;;;30.27;27.67;97111.41;5091277;28;20048;-28
2022/07/20 07:16:40;;;;;;;1.92;1.65;;;;;;;30.03;27.91;97115.22;5091455;28;20020;-28
2022/07/20 07:19:06;;;;;;;6.32;1.90;;;;;;;30.04;28.02;97105.56;5091862;28;20107;-28
2022/07/20 07:21:32;;;;;;;8.40;1.95;;;;;;;30.26;27.74;97105.06;5090276;28;20463;-28
2022/07/20 07:23:58;;;;;;;4.05;2.00;;;;;;;30.17;27.85;97113.13;5088980;28;20020;-28
2022/07/20 07:26:24;;;;;;;2.25;1.73;;;;;;;29.99;27.94;97112.75;5091448;28;20093;-28
2022/07/20 07:28:50;;;;;;;4.50;1.67;;;;;;;30.20;27.70;97124.00;5090228;28;20020;-28
2022/07/20 07:31:17;;;;;;;2.15;1.83;;;;;;;30.06;27.95;97119.72;5091510;28;20027;-28
2022/07/20 07:33:43;;;;;;;3.92;1.90;;;;;;;29.91;28.44;97120.28;5091588;28;20024;-29
2022/07/20 07:36:08;;;;;;;1.80;1.70;;;;;;;30.17;28.15;97113.88;5084497;28;20047;-29
2022/07/20 07:38:34;;;;;;;3.45;1.70;;;;;;;30.15;27.80;97121.34;5072646;28;20111;-27
2022/07/20 07:41:00;;;;;;;3.28;2.05;;;;;;;30.20;28.38;97112.03;5072749;28;20104;-28
2022/07/20 07:43:26;;;;;;;2.60;2.00;;;;;;;30.06;28.32;97128.09;5073021;28;20485;-28
2022/07/20 07:45:51;;;;;;;3.47;1.95;;;;;;;30.27;27.74;97123.34;5073224;28;20037;-28
2022/07/20 07:48:16;;;;;;;3.00;2.00;;;;;;;29.99;28.49;97120.38;5073195;28;20061;-29
2022/07/20 07:50:45;;;;;;;3.15;2.05;;;;;;;30.12;28.40;97128.00;5073072;28;20032;-28
2022/07/20 07:53:11;;;;;;;1.98;1.83;;;;;;;29.98;28.46;97130.06;5073104;28;20478;-27
2022/07/20 07:55:41;;;;;;;3.47;2.30;;;;;;;30.03;28.16;97126.41;5073111;28;20413;-29
2022/07/20 07:58:09;;;;;;;2.83;2.10;;;;;;;30.04;28.59;97121.56;5071546;28;20029;-28
2022/07/20 08:00:36;;;;;;;2.92;2.05;;;;;;;30.14;28.61;97123.38;5073016;28;20025;-27
2022/07/20 08:03:02;;;;;;;3.60;2.10;;;;;;;29.99;28.38;97131.56;5073049;28;20029;-28
2022/07/20 08:05:27;;;;;;;3.97;2.03;;;;;;;29.37;29.63;97125.63;5072833;28;20024;-30
2022/07/20 08:07:53;;;;;;;3.20;2.25;;;;;;;29.60;29.12;97123.94;5073401;28;20364;-29
2022/07/20 08:10:19;;;;;;;4.43;1.90;;;;;;;29.67;29.42;97135.22;5076793;28;20087;-29
2022/07/20 08:12:45;;;;;;;2.50;1.98;;;;;;;29.91;28.76;97127.91;5076916;28;20021;-30
2022/07/20 08:15:11;;;;;;;4.05;2.25;;;;;;;29.95;28.80;97128.31;5076892;28;20044;-29
2022/07/20 08:17:36;;;;;;;4.40;2.42;;;;;;;29.98;28.64;97136.41;5076648;28;20522;-29
2022/07/20 08:20:06;;;;;;;2.40;2.00;;;;;;;29.91;28.91;97125.13;5076845;28;20037;-29
2022/07/20 08:22:32;;;;;;;3.00;2.08;;;;;;;29.77;29.17;97132.75;5076944;28;20028;-29
2022/07/20 08:24:58;;;;;;;2.85;2.50;;;;;;;29.69;29.49;97125.56;5076421;28;20020;-29
2022/07/20 08:27:23;;;;;;;2.13;1.92;;;;;;;29.74;29.46;97133.09;5076605;28;20016;-29
2022/07/20 08:29:48;;;;;;;3.47;2.65;;;;;;;29.60;29.88;97130.28;5076713;28;20040;-29
2022/07/20 08:32:14;;;;;;;3.80;2.28;;;;;;;29.82;29.44;97129.09;5076425;28;20040;-29
2022/07/20 08:34:39;;;;;;;5.03;2.83;;;;;;;29.63;30.60;97126.44;5076415;28;20031;-29
2022/07/20 08:37:05;;;;;;;4.57;3.05;;;;;;;29.60;31.54;97130.28;5076292;28;20017;-29
2022/07/20 08:39:30;;;;;;;5.43;2.45;;;;;;;29.86;30.37;97131.56;5076295;28;20047;-29
2022/07/20 08:41:56;;;;;;;2.70;2.40;;;;;;;29.88;30.24;97140.16;5076479;28;20029;-31
2022/07/20 08:44:22;;;;;;;3.70;2.80;;;;;;;29.76;31.64;97138.91;5076468;28;20501;-29
2022/07/20 08:46:47;;;;;;;3.10;2.60;;;;;;;29.64;31.49;97138.38;5075993;28;20028;-29
2022/07/20 08:49:13;;;;;;;3.72;2.83;;;;;;;29.70;30.62;97141.78;5076308;28;20363;-29
2022/07/20 08:51:39;;;;;;;4.55;2.60;;;;;;;29.88;30.46;97140.16;5076134;28;20478;-29
2022/07/20 08:54:05;;;;;;;2.90;2.60;;;;;;;29.50;31.10;97140.41;5076238;28;20115;-29
2022/07/20 08:56:31;;;;;;;2.80;2.50;;;;;;;29.70;31.08;97136.19;5076028;28;20097;-29
2022/07/20 08:58:57;;;;;;;4.43;2.40;;;;;;;29.77;30.91;97138.34;5076053;28;20112;-29
2022/07/20 09:01:22;;;;;;;7.28;2.65;;;;;;;29.89;31.01;97138.88;5075783;28;20028;-29
2022/07/20 09:04:08;;;;;;;4.25;2.60;;;;;;;29.80;30.83;97142.09;5076029;28;20031;-29
2022/07/20 09:06:34;;;;;;;4.35;2.70;;;;;;;29.91;30.50;97137.06;5076087;28;20099;-29
2022/07/20 09:09:05;;;;;;;3.20;2.35;;;;;;;29.91;30.58;97142.66;5076034;28;20052;-29
2022/07/20 09:11:32;;;;;;;3.28;2.20;;;;;;;29.67;30.98;97142.88;5075570;28;20031;-29
2022/07/20 09:13:58;;;;;;;3.08;2.70;;;;;;;29.85;30.65;97139.19;5075426;28;20042;-29
2022/07/20 09:16:48;;;;;;;4.70;2.60;;;;;;;29.96;30.36;97147.38;5075122;28;20525;-29
2022/07/20 09:19:15;;;;;;;3.47;2.58;;;;;;;30.00;29.92;97144.28;5075432;28;20032;-29
2022/07/20 09:21:41;;;;;;;5.25;2.88;;;;;;;29.98;30.44;97146.84;5075113;28;20025;-29
2022/07/20 09:24:08;;;;;;;3.20;2.70;;;;;;;29.75;30.45;97143.72;5075022;28;20146;-29
2022/07/20 09:26:36;;;;;;;2.83;2.63;;;;;;;30.02;29.95;97152.88;5075545;28;20028;-29
2022/07/20 09:29:04;;;;;;;3.25;2.53;;;;;;;30.04;29.79;97144.69;5075509;28;20112;-30
2022/07/20 09:31:31;;;;;;;2.80;2.55;;;;;;;29.92;29.95;97146.19;5075877;28;21275;-29
2022/07/20 09:33:59;;;;;;;7.15;2.83;;;;;;;29.98;29.92;97141.25;5075786;28;20050;-29
2022/07/20 09:36:27;;;;;;;2.70;2.50;;;;;;;29.99;29.91;97135.13;5072720;28;20024;-29
2022/07/20 09:38:54;;;;;;;3.85;2.70;;;;;;;30.02;29.92;97136.09;5074273;28;20421;-29
2022/07/20 09:41:26;;;;;;;3.30;2.17;;;;;;;30.09;30.14;97134.66;5075257;28;20048;-29
2022/07/20 09:43:53;;;;;;;2.83;2.40;;;;;;;30.04;30.04;97135.56;5075463;28;20078;-29
2022/07/20 09:46:21;;;;;;;3.47;2.30;;;;;;;29.98;30.14;97130.06;5075167;28;20081;-30
2022/07/20 09:48:48;;;;;;;3.00;2.70;;;;;;;30.04;30.25;97129.97;5075161;28;20027;-29
2022/07/20 09:51:17;;;;;;;6.78;2.80;;;;;;;30.08;30.24;97138.75;5074194;28;20020;-29
2022/07/20 09:53:43;;;;;;;3.03;2.53;;;;;;;29.92;30.27;97132.22;5074924;28;20466;-29
2022/07/20 09:56:09;;;;;;;3.80;2.38;;;;;;;29.94;30.19;97121.97;5074980;28;20024;-31
2022/07/20 09:58:35;;;;;;;3.13;2.75;;;;;;;29.71;30.62;97122.97;5075071;28;20058;-29
2022/07/20 10:01:02;;;;;;;3.13;2.75;;;;;;;29.95;30.51;97114.34;5074897;28;20496;-29
2022/07/20 10:03:29;;;;;;;4.57;2.60;;;;;;;30.01;30.13;97117.81;5074778;28;20024;-29
2022/07/20 10:05:55;;;;;;;2.60;2.40;;;;;;;30.03;30.19;97115.22;5074803;28;20483;-29
2022/07/20 10:08:23;;;;;;;3.83;2.78;;;;;;;30.09;30.09;97112.28;5074582;28;20032;-29
2022/07/20 10:10:48;;;;;;;3.53;2.50;;;;;;;30.03;30.20;97106.84;5074788;28;20024;-29
2022/07/20 10:13:14;;;;;;;3.28;2.72;;;;;;;30.04;30.13;97105.56;5074612;28;20070;-29
2022/07/20 10:16:04;;;;;;;2.78;2.58;;;;;;;30.02;30.29;97104.59;5074721;28;20413;-29
2022/07/20 10:18:29;;;;;;;3.45;2.63;;;;;;;29.98;30.11;97108.44;5074540;28;20024;-29
2022/07/20 10:20:55;;;;;;;2.90;2.60;;;;;;;30.11;30.40;97110.47;5074441;28;20077;-29
2022/07/20 10:23:29;;;;;;;4.07;2.70;;;;;;;30.09;30.34;97106.69;5074665;28;20471;-29
2022/07/20 10:25:56;;;;;;;2.55;2.35;;;;;;;30.06;30.04;97108.53;5074300;28;20056;-29
2022/07/20 10:28:28;;;;;;;2.80;2.50;;;;;;;29.78;30.72;97111.16;5074257;28;20020;-29
2022/07/20 10:31:03;;;;;;;3.40;2.53;;;;;;;30.05;30.32;97121.00;5073782;28;20055;-29
2022/07/20 10:33:30;;;;;;;3.40;3.00;;;;;;;29.97;30.48;97111.78;5074218;28;20028;-29
2022/07/20 10:36:42;;;;;;;3.00;2.75;;;;;;;30.05;30.20;97107.03;5074549;28;20028;-29
2022/07/20 10:38:43;;;;;;;3.60;3.08;;;;;;;30.03;30.47;97106.09;5070110;28;20119;-29
2022/07/20 10:44:22;;;;;;;2.90;2.60;;;;;;;30.09;30.18;97104.66;5074359;28;20378;-29
2022/07/20 10:46:49;;;;;;;3.80;2.92;;;;;;;29.96;30.75;97105.44;5073878;28;20052;-29
2022/07/20 10:49:15;;;;;;;4.32;2.45;;;;;;;29.92;30.88;97107.06;5074176;28;20024;-30
2022/07/20 10:51:40;;;;;;;4.15;3.03;;;;;;;30.00;30.50;97110.72;5073613;28;20447;-29
2022/07/20 10:54:33;;;;;;;4.97;2.55;;;;;;;30.06;30.41;97097.34;5073895;28;20078;-29
2022/07/20 10:57:00;;;;;;;4.07;2.90;;;;;;;30.16;30.16;97098.41;5074019;28;20115;-30
2022/07/20 10:59:26;;;;;;;4.22;2.45;;;;;;;30.16;30.11;97092.06;5073752;28;20449;-29
2022/07/20 11:01:52;;;;;;;3.92;2.85;;;;;;;29.98;30.65;97097.25;5073592;28;20060;-29
2022/07/20 11:04:20;;;;;;;3.25;2.80;;;;;;;30.15;30.38;97087.75;5073677;28;20493;-30
2022/07/20 11:06:45;;;;;;;4.68;3.15;;;;;;;30.02;30.47;97091.34;5073535;28;20056;-29
2022/07/20 11:09:11;;;;;;;2.88;2.60;;;;;;;29.84;30.67;97092.19;5073557;28;20437;-29
2022/07/20 11:11:38;;;;;;;4.85;2.80;;;;;;;30.15;30.02;97085.72;5073558;28;20024;-29
2022/07/20 11:14:05;;;;;;;3.38;2.85;;;;;;;30.01;30.54;97081.44;5073592;28;20101;-29
2022/07/20 11:16:33;;;;;;;3.50;2.70;;;;;;;29.95;30.51;97086.38;5073479;28;20076;-29
2022/07/20 11:19:00;;;;;;;2.80;2.50;;;;;;;29.87;30.46;97083.50;5073640;28;20025;-29
2022/07/20 11:21:40;;;;;;;3.03;2.70;;;;;;;29.80;30.52;97075.75;5073371;28;20478;-30
2022/07/20 11:24:21;;;;;;;3.08;2.80;;;;;;;29.88;30.29;97075.84;5073695;28;20478;-29
2022/07/20 11:26:46;;;;;;;3.25;2.90;;;;;;;29.81;30.43;97070.91;5073394;28;20101;-29
2022/07/20 11:29:14;;;;;;;2.90;2.60;;;;;;;29.96;30.35;97073.94;5073483;28;20070;-30
2022/07/20 11:31:40;;;;;;;3.95;2.60;;;;;;;29.82;30.30;97066.81;5073196;28;20056;-29
2022/07/20 11:34:05;;;;;;;4.50;2.70;;;;;;;29.90;30.24;97070.47;5073407;28;20036;-29
2022/07/20 11:36:36;;;;;;;2.85;2.50;;;;;;;29.84;30.29;97067.03;5073353;28;20024;-28